sensor_id;sensor_type;location;lat;lon;timestamp;P1;durP1;ratioP1;P2;durP2;ratioP2
70049;SDS011;57391;51.306;22.680;2023-06-24T00:02:16;13.40;;;8.30;;
70049;SDS011;57391;51.306;22.680;2023-06-24T00:04:43;13.30;;;7.40;;
70049;SDS011;57391;51.306;22.680;2023-06-24T00:07:10;12.50;;;7.20;;
70049;SDS011;57391;51.306;22.680;2023-06-24T00:09:37;14.20;;;7.10;;
70049;SDS011;57391;51.306;22.680;2023-06-24T00:12:04;13.20;;;6.90;;
70049;SDS011;57391;51.306;22.680;2023-06-24T00:14:31;11.60;;;7.30;;
70049;SDS011;57391;51.306;22.680;2023-06-24T00:16:58;15.30;;;6.90;;
70049;SDS011;57391;51.306;22.680;2023-06-24T00:19:26;11.10;;;6.70;;
70049;SDS011;57391;51.306;22.680;2023-06-24T00:21:53;10.60;;;7.30;;
70049;SDS011;57391;51.306;22.680;2023-06-24T00:24:21;10.70;;;6.10;;
70049;SDS011;57391;51.306;22.680;2023-06-24T00:26:52;10.20;;;6.10;;
70049;SDS011;57391;51.306;22.680;2023-06-24T00:29:19;11.50;;;5.70;;
70049;SDS011;57391;51.306;22.680;2023-06-24T00:31:47;10.10;;;5.30;;
70049;SDS011;57391;51.306;22.680;2023-06-24T00:34:14;11.30;;;5.20;;
70049;SDS011;57391;51.306;22.680;2023-06-24T00:36:41;10.40;;;5.50;;
70049;SDS011;57391;51.306;22.680;2023-06-24T00:39:10;12.00;;;5.50;;
70049;SDS011;57391;51.306;22.680;2023-06-24T00:41:36;9.70;;;5.70;;
70049;SDS011;57391;51.306;22.680;2023-06-24T00:44:03;10.60;;;5.70;;
70049;SDS011;57391;51.306;22.680;2023-06-24T00:46:31;10.00;;;5.20;;
70049;SDS011;57391;51.306;22.680;2023-06-24T00:48:59;8.00;;;5.30;;
70049;SDS011;57391;51.306;22.680;2023-06-24T00:51:29;11.10;;;5.80;;
70049;SDS011;57391;51.306;22.680;2023-06-24T00:53:58;10.90;;;5.40;;
70049;SDS011;57391;51.306;22.680;2023-06-24T00:56:33;8.40;;;5.40;;
70049;SDS011;57391;51.306;22.680;2023-06-24T00:59:02;11.10;;;5.90;;
70049;SDS011;57391;51.306;22.680;2023-06-24T01:01:33;9.60;;;5.50;;
70049;SDS011;57391;51.306;22.680;2023-06-24T01:04:03;10.00;;;5.70;;
70049;SDS011;57391;51.306;22.680;2023-06-24T01:06:30;11.20;;;5.30;;
70049;SDS011;57391;51.306;22.680;2023-06-24T01:08:59;10.70;;;5.70;;
70049;SDS011;57391;51.306;22.680;2023-06-24T01:11:30;13.00;;;5.70;;
70049;SDS011;57391;51.306;22.680;2023-06-24T01:13:57;8.30;;;5.40;;
70049;SDS011;57391;51.306;22.680;2023-06-24T01:16:59;8.80;;;5.60;;
70049;SDS011;57391;51.306;22.680;2023-06-24T01:28:48;11.20;;;5.60;;
70049;SDS011;57391;51.306;22.680;2023-06-24T01:31:44;9.10;;;5.00;;
70049;SDS011;57391;51.306;22.680;2023-06-24T01:34:20;9.30;;;5.20;;
70049;SDS011;57391;51.306;22.680;2023-06-24T01:37:12;9.60;;;5.50;;
70049;SDS011;57391;51.306;22.680;2023-06-24T01:39:57;9.00;;;5.20;;
70049;SDS011;57391;51.306;22.680;2023-06-24T01:42:27;9.30;;;4.90;;
70049;SDS011;57391;51.306;22.680;2023-06-24T01:44:57;11.30;;;5.00;;
70049;SDS011;57391;51.306;22.680;2023-06-24T01:47:26;10.40;;;5.20;;
70049;SDS011;57391;51.306;22.680;2023-06-24T01:49:58;9.70;;;5.00;;
70049;SDS011;57391;51.306;22.680;2023-06-24T01:52:29;9.70;;;5.30;;
70049;SDS011;57391;51.306;22.680;2023-06-24T01:54:58;9.90;;;4.70;;
70049;SDS011;57391;51.306;22.680;2023-06-24T01:57:27;9.00;;;4.60;;
70049;SDS011;57391;51.306;22.680;2023-06-24T01:59:58;7.90;;;4.80;;
70049;SDS011;57391;51.306;22.680;2023-06-24T02:02:28;7.90;;;4.80;;
70049;SDS011;57391;51.306;22.680;2023-06-24T02:04:57;8.10;;;4.70;;
70049;SDS011;57391;51.306;22.680;2023-06-24T02:07:25;7.50;;;4.30;;
70049;SDS011;57391;51.306;22.680;2023-06-24T02:09:57;10.50;;;5.20;;
70049;SDS011;57391;51.306;22.680;2023-06-24T02:12:27;8.50;;;4.70;;
70049;SDS011;57391;51.306;22.680;2023-06-24T02:14:55;7.80;;;4.40;;
70049;SDS011;57391;51.306;22.680;2023-06-24T02:17:24;8.20;;;4.60;;
70049;SDS011;57391;51.306;22.680;2023-06-24T02:19:53;9.30;;;4.70;;
70049;SDS011;57391;51.306;22.680;2023-06-24T02:22:22;9.10;;;4.70;;
70049;SDS011;57391;51.306;22.680;2023-06-24T02:24:53;10.90;;;5.10;;
70049;SDS011;57391;51.306;22.680;2023-06-24T02:27:21;9.50;;;5.10;;
70049;SDS011;57391;51.306;22.680;2023-06-24T02:29:49;8.20;;;4.80;;
70049;SDS011;57391;51.306;22.680;2023-06-24T02:32:18;8.20;;;4.50;;
70049;SDS011;57391;51.306;22.680;2023-06-24T02:34:46;8.70;;;4.60;;
70049;SDS011;57391;51.306;22.680;2023-06-24T02:37:13;8.90;;;4.70;;
70049;SDS011;57391;51.306;22.680;2023-06-24T02:39:40;7.90;;;4.80;;
70049;SDS011;57391;51.306;22.680;2023-06-24T02:42:11;8.40;;;4.60;;
70049;SDS011;57391;51.306;22.680;2023-06-24T02:44:41;8.60;;;4.30;;
70049;SDS011;57391;51.306;22.680;2023-06-24T02:47:11;8.00;;;4.90;;
70049;SDS011;57391;51.306;22.680;2023-06-24T02:49:42;8.00;;;4.70;;
70049;SDS011;57391;51.306;22.680;2023-06-24T02:52:13;7.70;;;4.70;;
70049;SDS011;57391;51.306;22.680;2023-06-24T02:54:41;8.20;;;4.50;;
70049;SDS011;57391;51.306;22.680;2023-06-24T02:57:26;7.50;;;4.70;;
70049;SDS011;57391;51.306;22.680;2023-06-24T03:00:20;7.10;;;4.20;;
70049;SDS011;57391;51.306;22.680;2023-06-24T03:03:13;8.50;;;4.70;;
70049;SDS011;57391;51.306;22.680;2023-06-24T03:05:47;7.80;;;4.10;;
70049;SDS011;57391;51.306;22.680;2023-06-24T03:08:17;8.10;;;4.80;;
70049;SDS011;57391;51.306;22.680;2023-06-24T03:10:45;8.30;;;4.40;;
70049;SDS011;57391;51.306;22.680;2023-06-24T03:13:17;9.10;;;4.50;;
70049;SDS011;57391;51.306;22.680;2023-06-24T03:15:46;6.80;;;4.20;;
70049;SDS011;57391;51.306;22.680;2023-06-24T03:18:13;10.30;;;4.30;;
70049;SDS011;57391;51.306;22.680;2023-06-24T03:20:40;8.00;;;4.10;;
70049;SDS011;57391;51.306;22.680;2023-06-24T03:23:11;9.30;;;4.50;;
70049;SDS011;57391;51.306;22.680;2023-06-24T03:25:38;8.10;;;4.20;;
70049;SDS011;57391;51.306;22.680;2023-06-24T03:28:05;8.10;;;4.70;;
70049;SDS011;57391;51.306;22.680;2023-06-24T03:30:36;7.50;;;3.90;;
70049;SDS011;57391;51.306;22.680;2023-06-24T03:33:03;7.00;;;3.90;;
70049;SDS011;57391;51.306;22.680;2023-06-24T03:35:30;8.70;;;4.60;;
70049;SDS011;57391;51.306;22.680;2023-06-24T03:38:00;10.00;;;4.60;;
70049;SDS011;57391;51.306;22.680;2023-06-24T03:40:27;9.30;;;4.30;;
70049;SDS011;57391;51.306;22.680;2023-06-24T03:42:54;7.90;;;4.30;;
70049;SDS011;57391;51.306;22.680;2023-06-24T03:45:20;10.40;;;4.20;;
70049;SDS011;57391;51.306;22.680;2023-06-24T03:47:47;9.00;;;4.30;;
70049;SDS011;57391;51.306;22.680;2023-06-24T03:50:14;6.30;;;3.60;;
70049;SDS011;57391;51.306;22.680;2023-06-24T03:52:41;9.60;;;4.10;;
70049;SDS011;57391;51.306;22.680;2023-06-24T03:55:08;8.40;;;4.30;;
70049;SDS011;57391;51.306;22.680;2023-06-24T03:57:35;9.00;;;4.20;;
70049;SDS011;57391;51.306;22.680;2023-06-24T04:00:02;8.20;;;4.80;;
70049;SDS011;57391;51.306;22.680;2023-06-24T04:02:48;7.40;;;4.00;;
70049;SDS011;57391;51.306;22.680;2023-06-24T04:05:15;8.70;;;4.40;;
70049;SDS011;57391;51.306;22.680;2023-06-24T04:07:42;7.40;;;4.50;;
70049;SDS011;57391;51.306;22.680;2023-06-24T04:10:13;7.00;;;4.10;;
70049;SDS011;57391;51.306;22.680;2023-06-24T04:12:40;8.10;;;4.50;;
70049;SDS011;57391;51.306;22.680;2023-06-24T04:15:08;7.70;;;4.50;;
70049;SDS011;57391;51.306;22.680;2023-06-24T04:17:35;7.80;;;4.20;;
70049;SDS011;57391;51.306;22.680;2023-06-24T04:20:02;8.70;;;4.10;;
70049;SDS011;57391;51.306;22.680;2023-06-24T04:22:37;7.40;;;4.30;;
70049;SDS011;57391;51.306;22.680;2023-06-24T04:25:08;7.40;;;4.00;;
70049;SDS011;57391;51.306;22.680;2023-06-24T04:27:35;6.90;;;4.10;;
70049;SDS011;57391;51.306;22.680;2023-06-24T04:30:03;7.20;;;3.70;;
70049;SDS011;57391;51.306;22.680;2023-06-24T04:32:31;8.10;;;4.20;;
70049;SDS011;57391;51.306;22.680;2023-06-24T04:34:58;7.30;;;4.40;;
70049;SDS011;57391;51.306;22.680;2023-06-24T04:37:27;6.60;;;3.90;;
70049;SDS011;57391;51.306;22.680;2023-06-24T04:39:54;11.80;;;4.30;;
70049;SDS011;57391;51.306;22.680;2023-06-24T04:42:21;10.00;;;4.40;;
70049;SDS011;57391;51.306;22.680;2023-06-24T04:44:49;7.80;;;4.50;;
70049;SDS011;57391;51.306;22.680;2023-06-24T04:47:18;9.80;;;4.90;;
70049;SDS011;57391;51.306;22.680;2023-06-24T04:49:45;7.70;;;4.60;;
70049;SDS011;57391;51.306;22.680;2023-06-24T04:52:12;9.90;;;4.70;;
70049;SDS011;57391;51.306;22.680;2023-06-24T04:54:39;7.70;;;3.90;;
70049;SDS011;57391;51.306;22.680;2023-06-24T04:57:09;6.80;;;3.90;;
70049;SDS011;57391;51.306;22.680;2023-06-24T04:59:36;8.30;;;4.10;;
70049;SDS011;57391;51.306;22.680;2023-06-24T05:02:04;8.10;;;4.40;;
70049;SDS011;57391;51.306;22.680;2023-06-24T05:04:31;6.50;;;3.90;;
70049;SDS011;57391;51.306;22.680;2023-06-24T05:06:58;6.30;;;4.00;;
70049;SDS011;57391;51.306;22.680;2023-06-24T05:09:25;9.90;;;3.90;;
70049;SDS011;57391;51.306;22.680;2023-06-24T05:11:52;8.00;;;3.90;;
70049;SDS011;57391;51.306;22.680;2023-06-24T05:14:19;7.70;;;4.10;;
70049;SDS011;57391;51.306;22.680;2023-06-24T05:16:46;7.10;;;3.90;;
70049;SDS011;57391;51.306;22.680;2023-06-24T05:19:12;6.60;;;3.50;;
70049;SDS011;57391;51.306;22.680;2023-06-24T05:21:39;7.40;;;3.90;;
70049;SDS011;57391;51.306;22.680;2023-06-24T05:24:06;7.30;;;3.90;;
70049;SDS011;57391;51.306;22.680;2023-06-24T05:26:34;6.10;;;3.70;;
70049;SDS011;57391;51.306;22.680;2023-06-24T05:29:01;7.00;;;3.50;;
70049;SDS011;57391;51.306;22.680;2023-06-24T05:31:27;6.70;;;3.80;;
70049;SDS011;57391;51.306;22.680;2023-06-24T05:33:54;7.70;;;3.70;;
70049;SDS011;57391;51.306;22.680;2023-06-24T05:36:21;7.60;;;4.20;;
70049;SDS011;57391;51.306;22.680;2023-06-24T05:38:48;7.30;;;4.00;;
70049;SDS011;57391;51.306;22.680;2023-06-24T05:41:15;6.20;;;3.90;;
70049;SDS011;57391;51.306;22.680;2023-06-24T05:43:45;6.10;;;3.70;;
70049;SDS011;57391;51.306;22.680;2023-06-24T05:46:12;8.50;;;4.10;;
70049;SDS011;57391;51.306;22.680;2023-06-24T05:48:39;7.30;;;4.10;;
70049;SDS011;57391;51.306;22.680;2023-06-24T05:51:06;6.90;;;4.00;;
70049;SDS011;57391;51.306;22.680;2023-06-24T05:53:32;7.10;;;4.10;;
70049;SDS011;57391;51.306;22.680;2023-06-24T05:55:59;8.20;;;3.90;;
70049;SDS011;57391;51.306;22.680;2023-06-24T05:58:26;7.80;;;4.00;;
70049;SDS011;57391;51.306;22.680;2023-06-24T06:00:53;6.70;;;3.90;;
70049;SDS011;57391;51.306;22.680;2023-06-24T06:03:21;7.50;;;3.70;;
70049;SDS011;57391;51.306;22.680;2023-06-24T06:05:48;7.40;;;4.20;;
70049;SDS011;57391;51.306;22.680;2023-06-24T06:08:15;6.20;;;3.50;;
70049;SDS011;57391;51.306;22.680;2023-06-24T06:10:42;8.00;;;3.90;;
70049;SDS011;57391;51.306;22.680;2023-06-24T06:13:09;6.60;;;3.80;;
70049;SDS011;57391;51.306;22.680;2023-06-24T06:15:35;5.50;;;3.80;;
70049;SDS011;57391;51.306;22.680;2023-06-24T06:18:03;7.40;;;3.90;;
70049;SDS011;57391;51.306;22.680;2023-06-24T06:20:30;5.80;;;3.80;;
70049;SDS011;57391;51.306;22.680;2023-06-24T06:22:57;7.30;;;4.20;;
70049;SDS011;57391;51.306;22.680;2023-06-24T06:25:24;5.70;;;3.80;;
70049;SDS011;57391;51.306;22.680;2023-06-24T06:27:51;6.30;;;3.90;;
70049;SDS011;57391;51.306;22.680;2023-06-24T06:30:19;8.50;;;4.00;;
70049;SDS011;57391;51.306;22.680;2023-06-24T06:32:46;7.60;;;3.90;;
70049;SDS011;57391;51.306;22.680;2023-06-24T06:35:12;7.20;;;3.50;;
70049;SDS011;57391;51.306;22.680;2023-06-24T06:37:39;6.70;;;3.90;;
70049;SDS011;57391;51.306;22.680;2023-06-24T06:40:08;6.10;;;4.00;;
70049;SDS011;57391;51.306;22.680;2023-06-24T06:42:35;6.30;;;3.70;;
70049;SDS011;57391;51.306;22.680;2023-06-24T06:45:02;6.80;;;3.60;;
70049;SDS011;57391;51.306;22.680;2023-06-24T06:47:29;8.60;;;3.60;;
70049;SDS011;57391;51.306;22.680;2023-06-24T06:49:56;6.20;;;3.90;;
70049;SDS011;57391;51.306;22.680;2023-06-24T06:52:23;8.00;;;4.50;;
70049;SDS011;57391;51.306;22.680;2023-06-24T06:54:51;5.90;;;3.30;;
70049;SDS011;57391;51.306;22.680;2023-06-24T06:57:18;5.40;;;3.40;;
70049;SDS011;57391;51.306;22.680;2023-06-24T06:59:45;6.50;;;3.60;;
70049;SDS011;57391;51.306;22.680;2023-06-24T07:02:12;5.80;;;3.70;;
70049;SDS011;57391;51.306;22.680;2023-06-24T07:04:39;6.40;;;3.60;;
70049;SDS011;57391;51.306;22.680;2023-06-24T07:07:05;6.20;;;3.60;;
70049;SDS011;57391;51.306;22.680;2023-06-24T07:09:32;5.40;;;3.30;;
70049;SDS011;57391;51.306;22.680;2023-06-24T07:11:59;5.80;;;3.60;;
70049;SDS011;57391;51.306;22.680;2023-06-24T07:14:26;5.20;;;3.50;;
70049;SDS011;57391;51.306;22.680;2023-06-24T07:16:53;6.00;;;3.40;;
70049;SDS011;57391;51.306;22.680;2023-06-24T07:19:20;5.80;;;3.40;;
70049;SDS011;57391;51.306;22.680;2023-06-24T07:21:47;6.10;;;3.20;;
70049;SDS011;57391;51.306;22.680;2023-06-24T07:24:14;5.80;;;3.50;;
70049;SDS011;57391;51.306;22.680;2023-06-24T07:26:41;5.80;;;3.80;;
70049;SDS011;57391;51.306;22.680;2023-06-24T07:29:09;6.10;;;3.20;;
70049;SDS011;57391;51.306;22.680;2023-06-24T07:31:36;5.50;;;3.40;;
70049;SDS011;57391;51.306;22.680;2023-06-24T07:34:04;7.60;;;3.50;;
70049;SDS011;57391;51.306;22.680;2023-06-24T07:36:31;8.50;;;4.00;;
70049;SDS011;57391;51.306;22.680;2023-06-24T07:38:58;6.30;;;3.40;;
70049;SDS011;57391;51.306;22.680;2023-06-24T07:41:25;7.80;;;4.00;;
70049;SDS011;57391;51.306;22.680;2023-06-24T07:43:52;6.60;;;3.20;;
70049;SDS011;57391;51.306;22.680;2023-06-24T07:46:20;7.80;;;3.50;;
70049;SDS011;57391;51.306;22.680;2023-06-24T07:48:46;8.00;;;4.10;;
70049;SDS011;57391;51.306;22.680;2023-06-24T07:51:13;6.20;;;3.70;;
70049;SDS011;57391;51.306;22.680;2023-06-24T07:53:40;5.50;;;3.30;;
70049;SDS011;57391;51.306;22.680;2023-06-24T07:56:07;5.40;;;3.30;;
70049;SDS011;57391;51.306;22.680;2023-06-24T07:58:34;5.70;;;3.50;;
70049;SDS011;57391;51.306;22.680;2023-06-24T08:01:02;7.50;;;3.50;;
70049;SDS011;57391;51.306;22.680;2023-06-24T08:03:28;5.10;;;3.10;;
70049;SDS011;57391;51.306;22.680;2023-06-24T08:05:55;5.80;;;3.40;;
70049;SDS011;57391;51.306;22.680;2023-06-24T08:08:23;6.00;;;3.30;;
70049;SDS011;57391;51.306;22.680;2023-06-24T08:10:49;4.90;;;3.00;;
70049;SDS011;57391;51.306;22.680;2023-06-24T08:13:16;5.10;;;3.10;;
70049;SDS011;57391;51.306;22.680;2023-06-24T08:15:43;5.80;;;3.40;;
70049;SDS011;57391;51.306;22.680;2023-06-24T08:18:11;5.60;;;3.30;;
70049;SDS011;57391;51.306;22.680;2023-06-24T08:20:39;7.30;;;3.50;;
70049;SDS011;57391;51.306;22.680;2023-06-24T08:23:06;6.80;;;3.40;;
70049;SDS011;57391;51.306;22.680;2023-06-24T08:25:33;7.20;;;3.60;;
70049;SDS011;57391;51.306;22.680;2023-06-24T08:28:00;6.20;;;3.20;;
70049;SDS011;57391;51.306;22.680;2023-06-24T08:30:27;5.00;;;2.80;;
70049;SDS011;57391;51.306;22.680;2023-06-24T08:32:54;5.10;;;3.10;;
70049;SDS011;57391;51.306;22.680;2023-06-24T08:35:22;5.40;;;2.90;;
70049;SDS011;57391;51.306;22.680;2023-06-24T08:37:49;5.70;;;3.00;;
70049;SDS011;57391;51.306;22.680;2023-06-24T08:40:17;5.30;;;3.20;;
70049;SDS011;57391;51.306;22.680;2023-06-24T08:42:46;5.80;;;3.00;;
70049;SDS011;57391;51.306;22.680;2023-06-24T08:45:13;5.80;;;2.60;;
70049;SDS011;57391;51.306;22.680;2023-06-24T08:47:40;5.20;;;2.70;;
70049;SDS011;57391;51.306;22.680;2023-06-24T08:50:12;5.00;;;2.80;;
70049;SDS011;57391;51.306;22.680;2023-06-24T08:52:45;7.20;;;3.40;;
70049;SDS011;57391;51.306;22.680;2023-06-24T08:55:19;5.40;;;2.70;;
70049;SDS011;57391;51.306;22.680;2023-06-24T08:57:49;6.10;;;3.00;;
70049;SDS011;57391;51.306;22.680;2023-06-24T09:00:16;6.50;;;3.40;;
70049;SDS011;57391;51.306;22.680;2023-06-24T09:02:44;5.90;;;2.70;;
70049;SDS011;57391;51.306;22.680;2023-06-24T09:05:11;4.90;;;3.10;;
70049;SDS011;57391;51.306;22.680;2023-06-24T09:07:38;5.90;;;3.40;;
70049;SDS011;57391;51.306;22.680;2023-06-24T09:10:08;5.60;;;3.00;;
70049;SDS011;57391;51.306;22.680;2023-06-24T09:12:35;6.30;;;3.10;;
70049;SDS011;57391;51.306;22.680;2023-06-24T09:15:02;6.20;;;3.10;;
70049;SDS011;57391;51.306;22.680;2023-06-24T09:17:30;8.30;;;3.30;;
70049;SDS011;57391;51.306;22.680;2023-06-24T09:20:03;6.50;;;3.40;;
70049;SDS011;57391;51.306;22.680;2023-06-24T09:22:32;7.40;;;3.40;;
70049;SDS011;57391;51.306;22.680;2023-06-24T09:25:01;5.10;;;3.10;;
70049;SDS011;57391;51.306;22.680;2023-06-24T09:27:31;5.60;;;2.80;;
70049;SDS011;57391;51.306;22.680;2023-06-24T09:29:59;5.40;;;3.20;;
70049;SDS011;57391;51.306;22.680;2023-06-24T09:32:29;6.10;;;3.70;;
70049;SDS011;57391;51.306;22.680;2023-06-24T09:34:57;5.10;;;2.90;;
70049;SDS011;57391;51.306;22.680;2023-06-24T09:37:24;7.80;;;3.20;;
70049;SDS011;57391;51.306;22.680;2023-06-24T09:39:57;8.50;;;3.30;;
70049;SDS011;57391;51.306;22.680;2023-06-24T09:42:24;7.00;;;3.30;;
70049;SDS011;57391;51.306;22.680;2023-06-24T09:44:54;8.50;;;3.20;;
70049;SDS011;57391;51.306;22.680;2023-06-24T09:47:22;5.50;;;3.00;;
70049;SDS011;57391;51.306;22.680;2023-06-24T09:49:53;5.70;;;2.90;;
70049;SDS011;57391;51.306;22.680;2023-06-24T09:52:21;5.90;;;2.90;;
70049;SDS011;57391;51.306;22.680;2023-06-24T09:54:50;7.00;;;3.30;;
70049;SDS011;57391;51.306;22.680;2023-06-24T09:57:25;8.80;;;3.50;;
70049;SDS011;57391;51.306;22.680;2023-06-24T09:59:56;5.10;;;2.90;;
70049;SDS011;57391;51.306;22.680;2023-06-24T10:02:24;4.50;;;2.60;;
70049;SDS011;57391;51.306;22.680;2023-06-24T10:04:52;6.10;;;3.00;;
70049;SDS011;57391;51.306;22.680;2023-06-24T10:07:20;6.60;;;3.10;;
70049;SDS011;57391;51.306;22.680;2023-06-24T10:09:48;7.80;;;3.10;;
70049;SDS011;57391;51.306;22.680;2023-06-24T10:12:15;4.70;;;2.80;;
70049;SDS011;57391;51.306;22.680;2023-06-24T10:14:43;6.00;;;3.30;;
70049;SDS011;57391;51.306;22.680;2023-06-24T10:17:11;5.70;;;2.80;;
70049;SDS011;57391;51.306;22.680;2023-06-24T10:19:39;5.20;;;3.20;;
70049;SDS011;57391;51.306;22.680;2023-06-24T10:22:08;5.50;;;2.90;;
70049;SDS011;57391;51.306;22.680;2023-06-24T10:24:40;6.90;;;3.00;;
70049;SDS011;57391;51.306;22.680;2023-06-24T10:27:16;5.20;;;2.90;;
70049;SDS011;57391;51.306;22.680;2023-06-24T10:29:53;6.90;;;3.00;;
70049;SDS011;57391;51.306;22.680;2023-06-24T10:32:24;5.10;;;3.00;;
70049;SDS011;57391;51.306;22.680;2023-06-24T10:34:55;5.40;;;2.60;;
70049;SDS011;57391;51.306;22.680;2023-06-24T10:37:30;4.80;;;2.80;;
70049;SDS011;57391;51.306;22.680;2023-06-24T10:39:59;5.40;;;2.60;;
70049;SDS011;57391;51.306;22.680;2023-06-24T10:47:39;4.80;;;2.80;;
70049;SDS011;57391;51.306;22.680;2023-06-24T10:50:19;5.80;;;2.80;;
70049;SDS011;57391;51.306;22.680;2023-06-24T10:52:49;6.70;;;2.70;;
70049;SDS011;57391;51.306;22.680;2023-06-24T10:55:20;6.60;;;2.70;;
70049;SDS011;57391;51.306;22.680;2023-06-24T10:57:48;6.50;;;2.70;;
70049;SDS011;57391;51.306;22.680;2023-06-24T11:00:15;5.80;;;2.90;;
70049;SDS011;57391;51.306;22.680;2023-06-24T11:02:43;24.60;;;6.30;;
70049;SDS011;57391;51.306;22.680;2023-06-24T11:05:11;9.30;;;3.60;;
70049;SDS011;57391;51.306;22.680;2023-06-24T11:07:39;9.10;;;3.30;;
70049;SDS011;57391;51.306;22.680;2023-06-24T11:10:10;7.70;;;3.00;;
70049;SDS011;57391;51.306;22.680;2023-06-24T11:12:39;7.70;;;2.70;;
70049;SDS011;57391;51.306;22.680;2023-06-24T11:15:08;24.00;;;5.50;;
70049;SDS011;57391;51.306;22.680;2023-06-24T11:17:37;10.60;;;3.90;;
70049;SDS011;57391;51.306;22.680;2023-06-24T11:20:12;4.60;;;2.70;;
70049;SDS011;57391;51.306;22.680;2023-06-24T11:22:40;9.70;;;2.70;;
70049;SDS011;57391;51.306;22.680;2023-06-24T11:25:18;7.20;;;2.90;;
70049;SDS011;57391;51.306;22.680;2023-06-24T11:27:47;14.50;;;5.10;;
70049;SDS011;57391;51.306;22.680;2023-06-24T11:30:16;4.10;;;2.40;;
70049;SDS011;57391;51.306;22.680;2023-06-24T11:32:45;4.30;;;2.70;;
70049;SDS011;57391;51.306;22.680;2023-06-24T11:35:13;6.10;;;2.80;;
70049;SDS011;57391;51.306;22.680;2023-06-24T11:37:46;5.70;;;2.60;;
70049;SDS011;57391;51.306;22.680;2023-06-24T11:40:18;4.80;;;2.80;;
70049;SDS011;57391;51.306;22.680;2023-06-24T11:42:50;5.00;;;2.70;;
70049;SDS011;57391;51.306;22.680;2023-06-24T11:45:20;4.90;;;2.60;;
70049;SDS011;57391;51.306;22.680;2023-06-24T11:47:48;4.90;;;2.80;;
70049;SDS011;57391;51.306;22.680;2023-06-24T11:50:15;5.40;;;2.80;;
70049;SDS011;57391;51.306;22.680;2023-06-24T11:52:48;5.30;;;3.00;;
70049;SDS011;57391;51.306;22.680;2023-06-24T11:55:23;7.40;;;3.00;;
70049;SDS011;57391;51.306;22.680;2023-06-24T11:57:59;4.90;;;2.90;;
70049;SDS011;57391;51.306;22.680;2023-06-24T12:00:31;5.90;;;3.20;;
70049;SDS011;57391;51.306;22.680;2023-06-24T12:03:03;6.10;;;3.40;;
70049;SDS011;57391;51.306;22.680;2023-06-24T12:05:34;6.00;;;2.90;;
70049;SDS011;57391;51.306;22.680;2023-06-24T12:08:10;10.60;;;4.00;;
70049;SDS011;57391;51.306;22.680;2023-06-24T12:10:39;7.20;;;3.70;;
70049;SDS011;57391;51.306;22.680;2023-06-24T12:13:06;9.00;;;5.10;;
70049;SDS011;57391;51.306;22.680;2023-06-24T12:15:35;36.10;;;19.80;;
70049;SDS011;57391;51.306;22.680;2023-06-24T12:18:02;21.50;;;13.70;;
70049;SDS011;57391;51.306;22.680;2023-06-24T12:20:30;54.40;;;27.20;;
70049;SDS011;57391;51.306;22.680;2023-06-24T12:22:58;89.20;;;64.60;;
70049;SDS011;57391;51.306;22.680;2023-06-24T12:25:25;38.70;;;26.50;;
70049;SDS011;57391;51.306;22.680;2023-06-24T12:27:52;10.00;;;5.40;;
70049;SDS011;57391;51.306;22.680;2023-06-24T12:30:19;5.40;;;3.40;;
70049;SDS011;57391;51.306;22.680;2023-06-24T12:32:49;7.10;;;3.50;;
70049;SDS011;57391;51.306;22.680;2023-06-24T12:35:17;6.00;;;3.10;;
70049;SDS011;57391;51.306;22.680;2023-06-24T12:37:44;6.10;;;3.20;;
70049;SDS011;57391;51.306;22.680;2023-06-24T12:40:11;6.20;;;3.30;;
70049;SDS011;57391;51.306;22.680;2023-06-24T12:42:38;6.10;;;3.10;;
70049;SDS011;57391;51.306;22.680;2023-06-24T12:45:06;7.10;;;3.00;;
70049;SDS011;57391;51.306;22.680;2023-06-24T12:47:33;6.20;;;3.10;;
70049;SDS011;57391;51.306;22.680;2023-06-24T12:50:00;5.70;;;3.30;;
70049;SDS011;57391;51.306;22.680;2023-06-24T12:52:27;7.90;;;3.30;;
70049;SDS011;57391;51.306;22.680;2023-06-24T12:54:54;7.80;;;3.70;;
70049;SDS011;57391;51.306;22.680;2023-06-24T12:57:21;6.20;;;3.40;;
70049;SDS011;57391;51.306;22.680;2023-06-24T12:59:48;4.80;;;2.90;;
70049;SDS011;57391;51.306;22.680;2023-06-24T13:02:15;5.90;;;3.30;;
70049;SDS011;57391;51.306;22.680;2023-06-24T13:04:44;7.80;;;3.20;;
70049;SDS011;57391;51.306;22.680;2023-06-24T13:07:11;5.80;;;3.10;;
70049;SDS011;57391;51.306;22.680;2023-06-24T13:09:38;6.50;;;3.30;;
70049;SDS011;57391;51.306;22.680;2023-06-24T13:12:05;6.00;;;2.90;;
70049;SDS011;57391;51.306;22.680;2023-06-24T13:14:32;5.60;;;3.00;;
70049;SDS011;57391;51.306;22.680;2023-06-24T13:16:59;6.40;;;2.80;;
70049;SDS011;57391;51.306;22.680;2023-06-24T13:19:26;5.20;;;3.10;;
70049;SDS011;57391;51.306;22.680;2023-06-24T13:21:52;6.80;;;3.00;;
70049;SDS011;57391;51.306;22.680;2023-06-24T13:24:19;5.10;;;3.00;;
70049;SDS011;57391;51.306;22.680;2023-06-24T13:26:46;5.60;;;2.80;;
70049;SDS011;57391;51.306;22.680;2023-06-24T13:29:13;6.40;;;2.70;;
70049;SDS011;57391;51.306;22.680;2023-06-24T13:31:40;6.40;;;3.50;;
70049;SDS011;57391;51.306;22.680;2023-06-24T13:34:08;4.60;;;2.60;;
70049;SDS011;57391;51.306;22.680;2023-06-24T13:36:36;5.60;;;3.00;;
70049;SDS011;57391;51.306;22.680;2023-06-24T13:39:08;6.20;;;2.90;;
70049;SDS011;57391;51.306;22.680;2023-06-24T13:41:39;5.80;;;3.30;;
70049;SDS011;57391;51.306;22.680;2023-06-24T13:44:06;6.80;;;3.80;;
70049;SDS011;57391;51.306;22.680;2023-06-24T13:46:33;7.70;;;3.30;;
70049;SDS011;57391;51.306;22.680;2023-06-24T13:49:00;5.80;;;3.00;;
70049;SDS011;57391;51.306;22.680;2023-06-24T13:51:28;5.10;;;3.00;;
70049;SDS011;57391;51.306;22.680;2023-06-24T13:53:55;5.80;;;3.20;;
70049;SDS011;57391;51.306;22.680;2023-06-24T13:56:23;6.00;;;3.00;;
70049;SDS011;57391;51.306;22.680;2023-06-24T13:58:51;7.00;;;3.30;;
70049;SDS011;57391;51.306;22.680;2023-06-24T14:01:20;7.60;;;3.00;;
70049;SDS011;57391;51.306;22.680;2023-06-24T14:03:48;5.20;;;3.10;;
70049;SDS011;57391;51.306;22.680;2023-06-24T14:06:17;6.30;;;3.00;;
70049;SDS011;57391;51.306;22.680;2023-06-24T14:08:46;6.90;;;3.90;;
70049;SDS011;57391;51.306;22.680;2023-06-24T14:11:13;6.20;;;4.00;;
70049;SDS011;57391;51.306;22.680;2023-06-24T14:13:41;7.70;;;3.80;;
70049;SDS011;57391;51.306;22.680;2023-06-24T14:16:09;6.80;;;3.70;;
70049;SDS011;57391;51.306;22.680;2023-06-24T14:18:37;9.40;;;4.30;;
70049;SDS011;57391;51.306;22.680;2023-06-24T14:21:05;6.80;;;3.40;;
70049;SDS011;57391;51.306;22.680;2023-06-24T14:23:33;6.60;;;3.50;;
70049;SDS011;57391;51.306;22.680;2023-06-24T14:26:00;6.10;;;3.40;;
70049;SDS011;57391;51.306;22.680;2023-06-24T14:28:28;6.70;;;3.50;;
70049;SDS011;57391;51.306;22.680;2023-06-24T14:30:55;7.50;;;3.80;;
70049;SDS011;57391;51.306;22.680;2023-06-24T14:33:22;5.60;;;3.60;;
70049;SDS011;57391;51.306;22.680;2023-06-24T14:35:49;5.50;;;3.50;;
70049;SDS011;57391;51.306;22.680;2023-06-24T14:38:17;5.70;;;3.60;;
70049;SDS011;57391;51.306;22.680;2023-06-24T14:40:45;6.50;;;3.60;;
70049;SDS011;57391;51.306;22.680;2023-06-24T14:43:13;6.70;;;3.60;;
70049;SDS011;57391;51.306;22.680;2023-06-24T14:45:40;6.60;;;3.60;;
70049;SDS011;57391;51.306;22.680;2023-06-24T14:48:07;5.80;;;3.60;;
70049;SDS011;57391;51.306;22.680;2023-06-24T14:50:34;6.10;;;3.30;;
70049;SDS011;57391;51.306;22.680;2023-06-24T14:53:03;6.40;;;3.40;;
70049;SDS011;57391;51.306;22.680;2023-06-24T14:55:30;6.40;;;3.40;;
70049;SDS011;57391;51.306;22.680;2023-06-24T14:57:57;7.80;;;3.30;;